Time;durP1;ratioP1;P1;durP2;ratioP2;P2;SDS_P1;SDS_P2;PMS_P1;PMS_P2;Temp;Humidity;BMP_temperature;BMP_pressure;BME280_temperature;BME280_humidity;BME280_pressure;Samples;Min_cycle;Max_cycle;Signal;HPM_P1;HPM_P2
2022/12/12 00:02:17;;;;;;;;;;;;;;;;;;5084451;28;5528;-57
2022/12/12 00:04:42;;;;;;;;;;;;;;;;;;5079154;28;5075;-57
2022/12/12 00:07:07;;;;;;;;;;;;;;;;;;5086549;28;5321;-57
2022/12/12 00:09:32;;;;;;;;;;;;;;;;;;5079322;28;5257;-56
2022/12/12 00:11:58;;;;;;;;;;;;;;;;;;5080504;28;3736;-57
2022/12/12 00:14:23;;;;;;;;;;;;;;;;;;5081798;28;4969;-57
2022/12/12 00:16:48;;;;;;;;;;;;;;;;;;5086370;28;5029;-57
2022/12/12 00:19:13;;;;;;;;;;;;;;;;;;5083895;28;4591;-58
2022/12/12 00:21:39;;;;;;;;;;;;;;;;;;5073434;28;5079;-57
2022/12/12 00:24:04;;;;;;;;;;;;;;;;;;5083798;28;3632;-58
2022/12/12 00:26:30;;;;;;;;;;;;;;;;;;5086796;28;4641;-57
2022/12/12 00:28:56;;;;;;;;;;;;;;;;;;5082540;28;5050;-57
2022/12/12 00:31:21;;;;;;;;;;;;;;;;;;5061420;28;5134;-56
2022/12/12 00:33:48;;;;;;;;;;;;;;;;;;5081208;28;5062;-57
2022/12/12 00:36:14;;;;;;;;;;;;;;;;;;5080977;28;5207;-58
2022/12/12 00:38:39;;;;;;;;;;;;;;;;;;5080129;28;3459;-58
2022/12/12 00:41:05;;;;;;;;;;;;;;;;;;5084345;28;4991;-58
2022/12/12 00:43:30;;;;;;;;;;;;;;;;;;5082986;28;5182;-57
2022/12/12 00:45:57;;;;;;;;;;;;;;;;;;5072333;28;4507;-58
2022/12/12 00:48:22;;;;;;;;;;;;;;;;;;5082751;28;5055;-57
2022/12/12 00:50:47;;;;;;;;;;;;;;;;;;5086647;28;3075;-58
2022/12/12 00:53:12;;;;;;;;;;;;;;;;;;5086587;28;4666;-58
2022/12/12 00:55:38;;;;;;;;;;;;;;;;;;5078047;28;5122;-57
2022/12/12 00:58:03;;;;;;;;;;;;;;;;;;5084941;28;5105;-57
2022/12/12 01:00:28;;;;;;;;;;;;;;;;;;5081616;28;5168;-57
2022/12/12 01:02:57;;;;;;;;;;;;;;;;;;5068950;28;2994;-58
2022/12/12 01:05:22;;;;;;;;;;;;;;;;;;5072318;28;5063;-57
2022/12/12 01:07:47;;;;;;;;;;;;;;;;;;5082107;28;5160;-58
2022/12/12 01:10:13;;;;;;;;;;;;;;;;;;5064185;28;4830;-57
2022/12/12 01:12:38;;;;;;;;;;;;;;;;;;5083110;28;5095;-58
2022/12/12 01:15:04;;;;;;;;;;;;;;;;;;5080640;28;3467;-56
2022/12/12 01:17:34;;;;;;;;;;;;;;;;;;5069315;28;4619;-58
2022/12/12 01:19:59;;;;;;;;;;;;;;;;;;5079601;28;4433;-58
2022/12/12 01:22:24;;;;;;;;;;;;;;;;;;5087075;28;4472;-58
2022/12/12 01:24:49;;;;;;;;;;;;;;;;;;5084727;28;4998;-55
2022/12/12 01:27:15;;;;;;;;;;;;;;;;;;5057243;28;5133;-59
2022/12/12 01:29:40;;;;;;;;;;;;;;;;;;5074310;28;3780;-56
2022/12/12 01:32:05;;;;;;;;;;;;;;;;;;5085860;28;5102;-58
2022/12/12 01:34:31;;;;;;;;;;;;;;;;;;5084682;28;5017;-58
2022/12/12 01:36:56;;;;;;;;;;;;;;;;;;5074796;28;5172;-58
2022/12/12 01:39:21;;;;;;;;;;;;;;;;;;5084811;28;4863;-58
2022/12/12 01:41:46;;;;;;;;;;;;;;;;;;5084024;28;3699;-57
2022/12/12 01:44:30;;;;;;;;;;;;;;;;;;5079081;28;5075;-57
2022/12/12 01:46:56;;;;;;;;;;;;;;;;;;5072458;28;4558;-57
2022/12/12 01:49:24;;;;;;;;;;;;;;;;;;5070857;28;5050;-57
2022/12/12 01:51:51;;;;;;;;;;;;;;;;;;5058914;28;5647;-56
2022/12/12 01:54:18;;;;;;;;;;;;;;;;;;5077202;28;5556;-58
2022/12/12 01:56:43;;;;;;;;;;;;;;;;;;5066700;28;1373;-57
2022/12/12 01:59:09;;;;;;;;;;;;;;;;;;5061504;28;5132;-59
2022/12/12 02:01:34;;;;;;;;;;;;;;;;;;5069446;28;5115;-57
2022/12/12 02:04:00;;;;;;;;;;;;;;;;;;5087417;28;4957;-57
2022/12/12 02:06:26;;;;;;;;;;;;;;;;;;5064645;28;5030;-57
2022/12/12 02:08:52;;;;;;;;;;;;;;;;;;5082940;28;3541;-57
2022/12/12 02:11:17;;;;;;;;;;;;;;;;;;5068641;28;4480;-57
2022/12/12 02:13:42;;;;;;;;;;;;;;;;;;5083884;28;5135;-57
2022/12/12 02:16:19;;;;;;;;;;;;;;;;;;5085845;28;5135;-57
2022/12/12 02:18:44;;;;;;;;;;;;;;;;;;5069769;28;5047;-58
2022/12/12 02:21:11;;;;;;;;;;;;;;;;;;5080868;28;5266;-57
2022/12/12 02:23:42;;;;;;;;;;;;;;;;;;5069115;28;3594;-57
2022/12/12 02:26:28;;;;;;;;;;;;;;;;;;5084204;28;4826;-58
2022/12/12 02:28:56;;;;;;;;;;;;;;;;;;5068357;28;4969;-58
2022/12/12 02:31:23;;;;;;;;;;;;;;;;;;5089104;28;4783;-58
2022/12/12 02:34:07;;;;;;;;;;;;;;;;;;5056745;28;5112;-57
2022/12/12 02:36:44;;;;;;;;;;;;;;;;;;5087141;28;5342;-58
2022/12/12 02:39:17;;;;;;;;;;;;;;;;;;5071864;28;4889;-57
2022/12/12 02:41:47;;;;;;;;;;;;;;;;;;5052879;28;1288;-56
2022/12/12 02:44:24;;;;;;;;;;;;;;;;;;5058945;28;4608;-57
2022/12/12 02:47:03;;;;;;;;;;;;;;;;;;5086243;28;4529;-59
2022/12/12 02:49:39;;;;;;;;;;;;;;;;;;5066992;28;5022;-58
2022/12/12 02:52:05;;;;;;;;;;;;;;;;;;5084825;28;4974;-58
2022/12/12 02:54:30;;;;;;;;;;;;;;;;;;5074554;28;5075;-58
2022/12/12 02:56:56;;;;;;;;;;;;;;;;;;5085798;28;1104;-58
2022/12/12 02:59:23;;;;;;;;;;;;;;;;;;5085419;28;4911;-58
2022/12/12 03:01:52;;;;;;;;;;;;;;;;;;5060589;28;5077;-56
2022/12/12 03:09:53;;;;;;;;;;;;;;;;;;5064863;28;5115;-58
2022/12/12 03:12:24;;;;;;;;;;;;;;;;;;5082958;28;4990;-58
2022/12/12 03:15:09;;;;;;;;;;;;;;;;;;5060578;28;3658;-58
2022/12/12 03:17:52;;;;;;;;;;;;;;;;;;5087807;28;4970;-59
2022/12/12 03:20:27;;;;;;;;;;;;;;;;;;5075739;28;5116;-59
2022/12/12 03:23:11;;;;;;;;;;;;;;;;;;5069864;28;4890;-58
2022/12/12 03:25:56;;;;;;;;;;;;;;;;;;5085587;28;4493;-58
2022/12/12 03:28:23;;;;;;;;;;;;;;;;;;5066845;28;4945;-58
2022/12/12 03:30:50;;;;;;;;;;;;;;;;;;5058142;28;5006;-57
2022/12/12 03:33:17;;;;;;;;;;;;;;;;;;5061256;28;5026;-58
2022/12/12 03:35:45;;;;;;;;;;;;;;;;;;5061959;28;3664;-58
2022/12/12 03:38:16;;;;;;;;;;;;;;;;;;5068399;28;5261;-59
2022/12/12 03:40:51;;;;;;;;;;;;;;;;;;5061653;28;5667;-58
2022/12/12 03:43:18;;;;;;;;;;;;;;;;;;5064529;28;4669;-58
2022/12/12 03:45:47;;;;;;;;;;;;;;;;;;5084968;28;4712;-58
2022/12/12 03:48:20;;;;;;;;;;;;;;;;;;5066692;28;5032;-58
2022/12/12 03:50:53;;;;;;;;;;;;;;;;;;5061339;28;3638;-58
2022/12/12 03:53:22;;;;;;;;;;;;;;;;;;5065759;28;4918;-58
2022/12/12 03:55:48;;;;;;;;;;;;;;;;;;5080507;28;4858;-59
2022/12/12 03:58:17;;;;;;;;;;;;;;;;;;5064103;28;4567;-58
2022/12/12 04:00:42;;;;;;;;;;;;;;;;;;5050674;28;5417;-58
2022/12/12 04:03:09;;;;;;;;;;;;;;;;;;5068346;28;1096;-58
2022/12/12 04:08:37;;;;;;;;;;;;;;;;;;5087935;28;4627;-59
2022/12/12 04:14:28;;;;;;;;;;;;;;;;;;5040398;28;5009;-58
2022/12/12 04:16:59;;;;;;;;;;;;;;;;;;5045517;28;5160;-58
2022/12/12 04:25:05;;;;;;;;;;;;;;;;;;5067083;28;4551;-58
2022/12/12 04:27:34;;;;;;;;;;;;;;;;;;5068487;28;4991;-58
2022/12/12 04:30:03;;;;;;;;;;;;;;;;;;5062837;28;3663;-58
2022/12/12 04:32:47;;;;;;;;;;;;;;;;;;5063448;28;5078;-58
2022/12/12 04:35:13;;;;;;;;;;;;;;;;;;5077470;28;5034;-58
2022/12/12 04:37:41;;;;;;;;;;;;;;;;;;5078469;28;4948;-59
2022/12/12 04:40:07;;;;;;;;;;;;;;;;;;5075030;28;4880;-59
2022/12/12 04:42:33;;;;;;;;;;;;;;;;;;5066951;28;5162;-59
2022/12/12 04:45:09;;;;;;;;;;;;;;;;;;5062691;28;3341;-59
2022/12/12 04:47:35;;;;;;;;;;;;;;;;;;5068917;28;5070;-59
2022/12/12 04:50:00;;;;;;;;;;;;;;;;;;5083989;28;4458;-58
2022/12/12 04:52:25;;;;;;;;;;;;;;;;;;5066521;28;5062;-58
2022/12/12 04:55:17;;;;;;;;;;;;;;;;;;5058252;28;4692;-58
2022/12/12 04:57:44;;;;;;;;;;;;;;;;;;5081853;28;5141;-58
2022/12/12 05:00:09;;;;;;;;;;;;;;;;;;5087689;28;5092;-53
2022/12/12 05:02:53;;;;;;;;;;;;;;;;;;5080415;28;3480;-58
2022/12/12 05:05:25;;;;;;;;;;;;;;;;;;5082197;28;4835;-58
2022/12/12 05:08:02;;;;;;;;;;;;;;;;;;5081316;28;5535;-59
2022/12/12 05:10:27;;;;;;;;;;;;;;;;;;5068831;28;5144;-59
2022/12/12 05:12:55;;;;;;;;;;;;;;;;;;5063770;28;5080;-58
2022/12/12 05:15:21;;;;;;;;;;;;;;;;;;5065152;28;5263;-58
2022/12/12 05:17:47;;;;;;;;;;;;;;;;;;5063313;28;3589;-58
2022/12/12 05:20:12;;;;;;;;;;;;;;;;;;5081057;28;4927;-58
2022/12/12 05:22:38;;;;;;;;;;;;;;;;;;5079335;28;5065;-58
2022/12/12 05:25:03;;;;;;;;;;;;;;;;;;5084166;28;4990;-58
2022/12/12 05:27:28;;;;;;;;;;;;;;;;;;5080768;28;5046;-58
2022/12/12 05:29:54;;;;;;;;;;;;;;;;;;5077414;28;3964;-58
2022/12/12 05:32:19;;;;;;;;;;;;;;;;;;5078582;28;4430;-57
2022/12/12 05:34:44;;;;;;;;;;;;;;;;;;5082036;28;4854;-58
2022/12/12 05:37:10;;;;;;;;;;;;;;;;;;5082526;28;5465;-58
2022/12/12 05:39:35;;;;;;;;;;;;;;;;;;5086800;28;4769;-56
2022/12/12 05:42:00;;;;;;;;;;;;;;;;;;5084256;28;3417;-56
2022/12/12 05:44:25;;;;;;;;;;;;;;;;;;5081495;28;4816;-58
2022/12/12 05:46:51;;;;;;;;;;;;;;;;;;5083100;28;5506;-57
2022/12/12 05:49:16;;;;;;;;;;;;;;;;;;5084920;28;5023;-58
2022/12/12 05:51:42;;;;;;;;;;;;;;;;;;5084076;28;5223;-58
2022/12/12 05:54:07;;;;;;;;;;;;;;;;;;5087050;28;4620;-58
2022/12/12 05:56:32;;;;;;;;;;;;;;;;;;5070063;28;4604;-58
2022/12/12 05:58:57;;;;;;;;;;;;;;;;;;5086077;28;5083;-57
2022/12/12 06:01:23;;;;;;;;;;;;;;;;;;5066711;28;5046;-56
2022/12/12 06:03:48;;;;;;;;;;;;;;;;;;5085734;28;5536;-57
2022/12/12 06:06:13;;;;;;;;;;;;;;;;;;5089835;28;4482;-58
2022/12/12 06:08:38;;;;;;;;;;;;;;;;;;5088437;28;3279;-58
2022/12/12 06:11:05;;;;;;;;;;;;;;;;;;5083994;28;5668;-58
2022/12/12 06:13:30;;;;;;;;;;;;;;;;;;5088627;28;5077;-58
2022/12/12 06:15:55;;;;;;;;;;;;;;;;;;5085646;28;5075;-58
2022/12/12 06:18:21;;;;;;;;;;;;;;;;;;5082386;28;5102;-58
2022/12/12 06:20:46;;;;;;;;;;;;;;;;;;5085944;28;3739;-58
2022/12/12 06:23:11;;;;;;;;;;;;;;;;;;5087714;28;5066;-57
2022/12/12 06:25:36;;;;;;;;;;;;;;;;;;5065484;28;4609;-56
2022/12/12 06:28:02;;;;;;;;;;;;;;;;;;5083470;28;5060;-57
2022/12/12 06:30:27;;;;;;;;;;;;;;;;;;5064150;28;5079;-56
2022/12/12 06:32:52;;;;;;;;;;;;;;;;;;5073160;28;3790;-57
2022/12/12 06:35:17;;;;;;;;;;;;;;;;;;5071993;28;4987;-58
2022/12/12 06:37:43;;;;;;;;;;;;;;;;;;5080095;28;4913;-55
2022/12/12 06:40:08;;;;;;;;;;;;;;;;;;5087242;28;4969;-58
2022/12/12 06:42:33;;;;;;;;;;;;;;;;;;5083107;28;4952;-58
2022/12/12 06:44:59;;;;;;;;;;;;;;;;;;5082850;28;3412;-61
2022/12/12 06:47:24;;;;;;;;;;;;;;;;;;5062552;28;5083;-57
2022/12/12 06:49:49;;;;;;;;;;;;;;;;;;5085175;28;4556;-57
2022/12/12 06:52:14;;;;;;;;;;;;;;;;;;5076213;28;5069;-59
2022/12/12 06:54:40;;;;;;;;;;;;;;;;;;5082139;28;5155;-57
2022/12/12 06:57:05;;;;;;;;;;;;;;;;;;5085620;28;3249;-57
2022/12/12 06:59:30;;;;;;;;;;;;;;;;;;5084251;28;5153;-59
2022/12/12 07:01:56;;;;;;;;;;;;;;;;;;5070753;28;4988;-58
2022/12/12 07:04:21;;;;;;;;;;;;;;;;;;5085311;28;5068;-58
2022/12/12 07:06:46;;;;;;;;;;;;;;;;;;5086083;28;5048;-58
2022/12/12 07:09:11;;;;;;;;;;;;;;;;;;5085323;28;4661;-58
2022/12/12 07:11:37;;;;;;;;;;;;;;;;;;5086950;28;1544;-59
2022/12/12 07:14:04;;;;;;;;;;;;;;;;;;5079515;28;4460;-58
2022/12/12 07:16:29;;;;;;;;;;;;;;;;;;5068701;28;5083;-58
2022/12/12 07:18:54;;;;;;;;;;;;;;;;;;5083810;28;5178;-59
2022/12/12 07:21:20;;;;;;;;;;;;;;;;;;5085788;28;4987;-57
2022/12/12 07:23:45;;;;;;;;;;;;;;;;;;5086394;28;3890;-60
2022/12/12 07:26:14;;;;;;;;;;;;;;;;;;5079082;28;4472;-60
2022/12/12 07:28:40;;;;;;;;;;;;;;;;;;5083930;28;4960;-60
2022/12/12 07:31:09;;;;;;;;;;;;;;;;;;5088161;28;5062;-61
2022/12/12 07:33:34;;;;;;;;;;;;;;;;;;5064397;28;5163;-58
2022/12/12 07:35:59;;;;;;;;;;;;;;;;;;5080757;28;3918;-57
2022/12/12 07:38:25;;;;;;;;;;;;;;;;;;5086518;28;5036;-58
2022/12/12 07:40:50;;;;;;;;;;;;;;;;;;5085053;28;5598;-59
2022/12/12 07:43:15;;;;;;;;;;;;;;;;;;5082314;28;4482;-59
2022/12/12 07:45:44;;;;;;;;;;;;;;;;;;5084325;28;4640;-58
2022/12/12 07:48:09;;;;;;;;;;;;;;;;;;5086192;28;5033;-57
2022/12/12 07:50:36;;;;;;;;;;;;;;;;;;5083666;28;3630;-58
2022/12/12 07:53:01;;;;;;;;;;;;;;;;;;5064843;28;5409;-65
2022/12/12 07:55:26;;;;;;;;;;;;;;;;;;5083805;28;4842;-58
2022/12/12 07:57:52;;;;;;;;;;;;;;;;;;5079929;28;4733;-58
2022/12/12 08:00:17;;;;;;;;;;;;;;;;;;5081738;28;5010;-68
2022/12/12 08:02:43;;;;;;;;;;;;;;;;;;5085968;28;3199;-67
2022/12/12 08:05:08;;;;;;;;;;;;;;;;;;5084703;28;5179;-58
2022/12/12 08:07:33;;;;;;;;;;;;;;;;;;5064506;28;5098;-60
2022/12/12 08:09:58;;;;;;;;;;;;;;;;;;5086325;28;4732;-58
2022/12/12 08:12:24;;;;;;;;;;;;;;;;;;5085583;28;5087;-59
2022/12/12 08:14:49;;;;;;;;;;;;;;;;;;5082477;28;3884;-65
2022/12/12 08:17:14;;;;;;;;;;;;;;;;;;5082968;28;4438;-64
2022/12/12 08:19:40;;;;;;;;;;;;;;;;;;5083901;28;4549;-65
2022/12/12 08:22:07;;;;;;;;;;;;;;;;;;5082165;28;4551;-60
2022/12/12 08:24:32;;;;;;;;;;;;;;;;;;5070254;28;5371;-60
2022/12/12 08:26:57;;;;;;;;;;;;;;;;;;5086600;28;2143;-59
2022/12/12 08:29:23;;;;;;;;;;;;;;;;;;5082941;28;4876;-59
2022/12/12 08:31:48;;;;;;;;;;;;;;;;;;5078649;28;5558;-60
2022/12/12 08:34:13;;;;;;;;;;;;;;;;;;5082474;28;5185;-60
2022/12/12 08:36:39;;;;;;;;;;;;;;;;;;5083290;28;5175;-59
2022/12/12 08:39:05;;;;;;;;;;;;;;;;;;5082118;28;3624;-59
2022/12/12 08:41:31;;;;;;;;;;;;;;;;;;5078587;28;5119;-60
2022/12/12 08:43:56;;;;;;;;;;;;;;;;;;5067666;28;5091;-65
2022/12/12 08:46:21;;;;;;;;;;;;;;;;;;5063381;28;5032;-59
2022/12/12 08:48:46;;;;;;;;;;;;;;;;;;5083465;28;4559;-59
2022/12/12 08:51:12;;;;;;;;;;;;;;;;;;5080950;28;5137;-58
2022/12/12 08:53:37;;;;;;;;;;;;;;;;;;5066941;28;4616;-61
2022/12/12 08:56:03;;;;;;;;;;;;;;;;;;5074892;28;5254;-61
2022/12/12 08:58:28;;;;;;;;;;;;;;;;;;5087950;28;4940;-59
2022/12/12 09:00:55;;;;;;;;;;;;;;;;;;5084306;28;5081;-59
2022/12/12 09:03:20;;;;;;;;;;;;;;;;;;5083442;28;4494;-59
2022/12/12 09:05:46;;;;;;;;;;;;;;;;;;5080711;28;1478;-59
2022/12/12 09:08:11;;;;;;;;;;;;;;;;;;5069649;28;5539;-59
2022/12/12 09:10:37;;;;;;;;;;;;;;;;;;5063084;28;5201;-60
2022/12/12 09:13:02;;;;;;;;;;;;;;;;;;5067454;28;4956;-59
2022/12/12 09:15:27;;;;;;;;;;;;;;;;;;5074434;28;5120;-62
2022/12/12 09:17:53;;;;;;;;;;;;;;;;;;5082523;28;1139;-58
2022/12/12 09:20:18;;;;;;;;;;;;;;;;;;5059949;28;4939;-62
2022/12/12 09:22:43;;;;;;;;;;;;;;;;;;5058521;28;4728;-64
2022/12/12 09:25:09;;;;;;;;;;;;;;;;;;5072055;28;4536;-59
2022/12/12 09:27:34;;;;;;;;;;;;;;;;;;5075832;28;4467;-63
2022/12/12 09:29:59;;;;;;;;;;;;;;;;;;5073390;28;3223;-64
2022/12/12 09:32:25;;;;;;;;;;;;;;;;;;5070170;28;5001;-63
2022/12/12 09:34:51;;;;;;;;;;;;;;;;;;5076388;28;5120;-66
2022/12/12 09:37:17;;;;;;;;;;;;;;;;;;5067587;28;4628;-63
2022/12/12 09:39:42;;;;;;;;;;;;;;;;;;5065824;28;5150;-63
2022/12/12 09:42:13;;;;;;;;;;;;;;;;;;5071712;28;3142;-64
2022/12/12 09:44:38;;;;;;;;;;;;;;;;;;5055592;28;4533;-64
2022/12/12 09:47:05;;;;;;;;;;;;;;;;;;5056142;28;4646;-64
2022/12/12 09:49:36;;;;;;;;;;;;;;;;;;5059630;28;5111;-60
2022/12/12 09:52:01;;;;;;;;;;;;;;;;;;5055673;28;5079;-60
2022/12/12 09:54:26;;;;;;;;;;;;;;;;;;5052745;28;5415;-63
2022/12/12 09:57:04;;;;;;;;;;;;;;;;;;5069482;28;3630;-71
2022/12/12 09:59:35;;;;;;;;;;;;;;;;;;5065300;28;4812;-60
2022/12/12 10:02:11;;;;;;;;;;;;;;;;;;5073559;28;5103;-65
2022/12/12 10:05:03;;;;;;;;;;;;;;;;;;5045372;28;5231;-59
2022/12/12 10:07:38;;;;;;;;;;;;;;;;;;5040015;28;5269;-60
2022/12/12 10:10:03;;;;;;;;;;;;;;;;;;5090832;28;4603;-58
2022/12/12 10:12:28;;;;;;;;;;;;;;;;;;5091497;28;5393;-60
2022/12/12 10:14:55;;;;;;;;;;;;;;;;;;5066453;28;3580;-65
2022/12/12 10:17:36;;;;;;;;;;;;;;;;;;5079313;28;5072;-62
2022/12/12 10:20:04;;;;;;;;;;;;;;;;;;5075459;28;5558;-59
2022/12/12 10:22:29;;;;;;;;;;;;;;;;;;5101544;28;5088;-61
2022/12/12 10:24:55;;;;;;;;;;;;;;;;;;5103493;28;5114;-63
2022/12/12 10:27:21;;;;;;;;;;;;;;;;;;5091181;28;5779;-65
2022/12/12 10:29:47;;;;;;;;;;;;;;;;;;5074168;28;3919;-63
2022/12/12 10:32:48;;;;;;;;;;;;;;;;;;5078126;28;5005;-62
2022/12/12 10:35:16;;;;;;;;;;;;;;;;;;5006534;28;5076;-63
2022/12/12 10:37:44;;;;;;;;;;;;;;;;;;5077540;28;5144;-58
2022/12/12 10:40:09;;;;;;;;;;;;;;;;;;5095545;28;5083;-62
2022/12/12 10:43:13;;;;;;;;;;;;;;;;;;5095575;28;5328;-60
2022/12/12 10:45:38;;;;;;;;;;;;;;;;;;5012823;28;5469;-61
2022/12/12 10:48:04;;;;;;;;;;;;;;;;;;5017134;28;1980;-62
2022/12/12 10:50:29;;;;;;;;;;;;;;;;;;5046541;28;4920;-60
2022/12/12 10:52:54;;;;;;;;;;;;;;;;;;5094186;28;5179;-64
2022/12/12 10:55:22;;;;;;;;;;;;;;;;;;5097627;28;5194;-66
2022/12/12 10:57:47;;;;;;;;;;;;;;;;;;5066062;28;5152;-65
2022/12/12 11:00:16;;;;;;;;;;;;;;;;;;5070153;28;5134;-66
2022/12/12 11:02:41;;;;;;;;;;;;;;;;;;5093410;28;3737;-63
2022/12/12 11:05:09;;;;;;;;;;;;;;;;;;5078434;28;5211;-69
2022/12/12 11:07:38;;;;;;;;;;;;;;;;;;5098669;28;5104;-68
2022/12/12 11:10:24;;;;;;;;;;;;;;;;;;5092684;28;5108;-62
2022/12/12 11:13:15;;;;;;;;;;;;;;;;;;5084632;28;4487;-60
2022/12/12 11:15:41;;;;;;;;;;;;;;;;;;5092840;28;5526;-61
2022/12/12 11:18:09;;;;;;;;;;;;;;;;;;5094486;28;1080;-61
2022/12/12 11:20:34;;;;;;;;;;;;;;;;;;5079665;28;4608;-61
2022/12/12 11:22:59;;;;;;;;;;;;;;;;;;5077406;28;4910;-61
2022/12/12 11:25:29;;;;;;;;;;;;;;;;;;5082972;28;4905;-61
2022/12/12 11:27:55;;;;;;;;;;;;;;;;;;5095623;28;4479;-62
2022/12/12 11:30:21;;;;;;;;;;;;;;;;;;5054373;28;5108;-59
2022/12/12 11:32:47;;;;;;;;;;;;;;;;;;5058889;28;3994;-63
2022/12/12 11:35:25;;;;;;;;;;;;;;;;;;5077834;28;5028;-62
2022/12/12 11:37:52;;;;;;;;;;;;;;;;;;5092210;28;5216;-61
2022/12/12 11:40:22;;;;;;;;;;;;;;;;;;5076747;28;5232;-63
2022/12/12 11:42:47;;;;;;;;;;;;;;;;;;5070642;28;4473;-62
2022/12/12 11:45:13;;;;;;;;;;;;;;;;;;5078027;28;4595;-61
2022/12/12 11:47:39;;;;;;;;;;;;;;;;;;5079805;28;3645;-62
2022/12/12 11:50:19;;;;;;;;;;;;;;;;;;5092122;28;4981;-62
2022/12/12 11:52:45;;;;;;;;;;;;;;;;;;5085355;28;4477;-59
2022/12/12 11:55:14;;;;;;;;;;;;;;;;;;5054558;28;5114;-59
2022/12/12 11:57:48;;;;;;;;;;;;;;;;;;5065963;28;5081;-59
2022/12/12 12:00:14;;;;;;;;;;;;;;;;;;5077005;28;1077;-59
2022/12/12 12:02:58;;;;;;;;;;;;;;;;;;5095778;28;5217;-59
2022/12/12 12:05:44;;;;;;;;;;;;;;;;;;5095718;28;4994;-59
2022/12/12 12:08:25;;;;;;;;;;;;;;;;;;5077584;28;4643;-59
2022/12/12 12:11:12;;;;;;;;;;;;;;;;;;5089289;28;5023;-59
2022/12/12 12:13:56;;;;;;;;;;;;;;;;;;5074788;28;4910;-60
2022/12/12 12:16:56;;;;;;;;;;;;;;;;;;5089709;28;4872;-60
2022/12/12 12:19:45;;;;;;;;;;;;;;;;;;4972409;28;4940;-60
2022/12/12 12:22:10;;;;;;;;;;;;;;;;;;5082385;28;5297;-59
2022/12/12 12:24:51;;;;;;;;;;;;;;;;;;5095207;28;4941;-59
2022/12/12 12:27:22;;;;;;;;;;;;;;;;;;5081742;28;5066;-59
2022/12/12 12:30:05;;;;;;;;;;;;;;;;;;5087210;28;3740;-60
2022/12/12 12:32:46;;;;;;;;;;;;;;;;;;5074918;28;4970;-60
2022/12/12 12:35:19;;;;;;;;;;;;;;;;;;5056316;28;4997;-60
2022/12/12 12:37:44;;;;;;;;;;;;;;;;;;5074261;28;6231;-59
2022/12/12 12:40:18;;;;;;;;;;;;;;;;;;5096771;28;5130;-60
2022/12/12 12:42:47;;;;;;;;;;;;;;;;;;5072552;28;5037;-59
2022/12/12 12:45:17;;;;;;;;;;;;;;;;;;5097039;28;1278;-60
2022/12/12 12:47:42;;;;;;;;;;;;;;;;;;5079271;28;4578;-60
2022/12/12 12:50:22;;;;;;;;;;;;;;;;;;5092848;28;5072;-59
2022/12/12 12:52:59;;;;;;;;;;;;;;;;;;5076225;28;4826;-59
2022/12/12 12:55:28;;;;;;;;;;;;;;;;;;5075417;28;4905;-58
2022/12/12 12:57:54;;;;;;;;;;;;;;;;;;5053292;28;5186;-60
2022/12/12 13:00:20;;;;;;;;;;;;;;;;;;5083954;28;5163;-60
2022/12/12 13:02:54;;;;;;;;;;;;;;;;;;5092046;28;3883;-60
2022/12/12 13:05:21;;;;;;;;;;;;;;;;;;5065448;28;4923;-59
2022/12/12 13:07:53;;;;;;;;;;;;;;;;;;5074361;28;5230;-59
2022/12/12 13:10:22;;;;;;;;;;;;;;;;;;5095356;28;5007;-60
2022/12/12 13:13:03;;;;;;;;;;;;;;;;;;5068533;28;4964;-58
2022/12/12 13:15:32;;;;;;;;;;;;;;;;;;5072636;28;4982;-60
2022/12/12 13:18:15;;;;;;;;;;;;;;;;;;5095692;28;3473;-62
2022/12/12 13:21:03;;;;;;;;;;;;;;;;;;5090183;28;4517;-61
2022/12/12 13:23:48;;;;;;;;;;;;;;;;;;5056828;28;5133;-60
2022/12/12 13:26:25;;;;;;;;;;;;;;;;;;5084211;28;5095;-61
2022/12/12 13:28:52;;;;;;;;;;;;;;;;;;5085732;28;4639;-60
2022/12/12 13:31:38;;;;;;;;;;;;;;;;;;5066285;28;4937;-68
2022/12/12 13:34:07;;;;;;;;;;;;;;;;;;5089727;28;4981;-62
2022/12/12 13:36:34;;;;;;;;;;;;;;;;;;5069077;28;5138;-60
2022/12/12 13:39:00;;;;;;;;;;;;;;;;;;5075227;28;3263;-62
2022/12/12 13:41:26;;;;;;;;;;;;;;;;;;5074092;28;5067;-60
2022/12/12 13:43:57;;;;;;;;;;;;;;;;;;5084600;28;5440;-61
2022/12/12 13:46:26;;;;;;;;;;;;;;;;;;5079794;28;4957;-61
2022/12/12 13:49:20;;;;;;;;;;;;;;;;;;5092527;28;5223;-61
2022/12/12 13:51:46;;;;;;;;;;;;;;;;;;5067991;28;4869;-62
2022/12/12 13:54:11;;;;;;;;;;;;;;;;;;5069609;28;4536;-63
2022/12/12 13:56:43;;;;;;;;;;;;;;;;;;5091693;28;5039;-60
2022/12/12 13:59:21;;;;;;;;;;;;;;;;;;5080563;28;4787;-59
2022/12/12 14:01:46;;;;;;;;;;;;;;;;;;5096651;28;5019;-62
2022/12/12 14:04:32;;;;;;;;;;;;;;;;;;5072821;28;4915;-60
2022/12/12 14:07:01;;;;;;;;;;;;;;;;;;5090593;28;5079;-62
2022/12/12 14:09:28;;;;;;;;;;;;;;;;;;5078503;28;4819;-62
2022/12/12 14:11:57;;;;;;;;;;;;;;;;;;5062806;28;3931;-62
2022/12/12 14:14:23;;;;;;;;;;;;;;;;;;5077826;28;4455;-62
2022/12/12 14:16:52;;;;;;;;;;;;;;;;;;5080812;28;4814;-64
2022/12/12 14:19:36;;;;;;;;;;;;;;;;;;5079300;28;5354;-62
2022/12/12 14:22:01;;;;;;;;;;;;;;;;;;5097157;28;4889;-63
2022/12/12 14:24:32;;;;;;;;;;;;;;;;;;5095698;28;5084;-62
2022/12/12 14:27:07;;;;;;;;;;;;;;;;;;5091405;28;3287;-61
2022/12/12 14:29:33;;;;;;;;;;;;;;;;;;5082722;28;4922;-61
2022/12/12 14:32:01;;;;;;;;;;;;;;;;;;5092071;28;4594;-61
2022/12/12 14:34:32;;;;;;;;;;;;;;;;;;5089310;28;4467;-61
2022/12/12 14:37:06;;;;;;;;;;;;;;;;;;5089054;28;5062;-61
2022/12/12 14:39:34;;;;;;;;;;;;;;;;;;5072418;28;5009;-62
2022/12/12 14:42:01;;;;;;;;;;;;;;;;;;5092178;28;3211;-60
2022/12/12 14:44:27;;;;;;;;;;;;;;;;;;5079486;28;4977;-60
2022/12/12 14:46:52;;;;;;;;;;;;;;;;;;5090904;28;5704;-61
2022/12/12 14:49:18;;;;;;;;;;;;;;;;;;5097149;28;5013;-61
2022/12/12 14:51:44;;;;;;;;;;;;;;;;;;5092788;28;4587;-61
2022/12/12 14:54:13;;;;;;;;;;;;;;;;;;5078434;28;4513;-59
2022/12/12 14:56:39;;;;;;;;;;;;;;;;;;5075301;28;5065;-60
2022/12/12 14:59:05;;;;;;;;;;;;;;;;;;5089791;28;4625;-60
2022/12/12 15:01:35;;;;;;;;;;;;;;;;;;5058253;28;4751;-61
2022/12/12 15:04:04;;;;;;;;;;;;;;;;;;5074130;28;5067;-61
2022/12/12 15:06:29;;;;;;;;;;;;;;;;;;5093113;28;5505;-63
2022/12/12 15:08:55;;;;;;;;;;;;;;;;;;5099492;28;1991;-60
2022/12/12 15:11:22;;;;;;;;;;;;;;;;;;5090317;28;4993;-61
2022/12/12 15:13:48;;;;;;;;;;;;;;;;;;5096970;28;5210;-61
2022/12/12 15:16:13;;;;;;;;;;;;;;;;;;5080471;28;4626;-61
2022/12/12 15:18:39;;;;;;;;;;;;;;;;;;5058409;28;4634;-62
2022/12/12 15:21:04;;;;;;;;;;;;;;;;;;5071724;28;3310;-61
2022/12/12 15:23:29;;;;;;;;;;;;;;;;;;5095825;28;5071;-63
2022/12/12 15:25:54;;;;;;;;;;;;;;;;;;5093836;28;5055;-61
2022/12/12 15:28:20;;;;;;;;;;;;;;;;;;5066829;28;5061;-61
2022/12/12 15:30:46;;;;;;;;;;;;;;;;;;5096447;28;5069;-62
2022/12/12 15:33:18;;;;;;;;;;;;;;;;;;5078531;28;1134;-61
2022/12/12 15:35:47;;;;;;;;;;;;;;;;;;5091388;28;5355;-60
2022/12/12 15:38:12;;;;;;;;;;;;;;;;;;5094514;28;5133;-60
2022/12/12 15:40:38;;;;;;;;;;;;;;;;;;5091841;28;5083;-59
2022/12/12 15:43:10;;;;;;;;;;;;;;;;;;5076728;28;4879;-60
2022/12/12 15:45:36;;;;;;;;;;;;;;;;;;5062728;28;4494;-60
2022/12/12 15:48:02;;;;;;;;;;;;;;;;;;5072010;28;2626;-62
2022/12/12 15:50:29;;;;;;;;;;;;;;;;;;5093098;28;4957;-61
2022/12/12 15:53:18;;;;;;;;;;;;;;;;;;5074448;28;5099;-60
2022/12/12 15:56:00;;;;;;;;;;;;;;;;;;5076755;28;5629;-60
2022/12/12 15:58:30;;;;;;;;;;;;;;;;;;5089513;28;5014;-61
2022/12/12 16:01:05;;;;;;;;;;;;;;;;;;5074706;28;5116;-61
2022/12/12 16:03:31;;;;;;;;;;;;;;;;;;5076119;28;4993;-60
2022/12/12 16:05:57;;;;;;;;;;;;;;;;;;5075980;28;1270;-58
2022/12/12 16:08:42;;;;;;;;;;;;;;;;;;5096609;28;4461;-61
2022/12/12 16:11:26;;;;;;;;;;;;;;;;;;5070546;28;4587;-59
2022/12/12 16:13:53;;;;;;;;;;;;;;;;;;5071868;28;4768;-61
2022/12/12 16:16:37;;;;;;;;;;;;;;;;;;5097071;28;5102;-61
2022/12/12 16:19:03;;;;;;;;;;;;;;;;;;5093693;28;5078;-61
2022/12/12 16:21:28;;;;;;;;;;;;;;;;;;5076506;28;4701;-61
2022/12/12 16:23:56;;;;;;;;;;;;;;;;;;5093539;28;2877;-62
2022/12/12 16:26:21;;;;;;;;;;;;;;;;;;5073495;28;4473;-61
2022/12/12 16:28:46;;;;;;;;;;;;;;;;;;5092292;28;4463;-61
2022/12/12 16:31:15;;;;;;;;;;;;;;;;;;5094636;28;4868;-61
2022/12/12 16:33:40;;;;;;;;;;;;;;;;;;5092460;28;4889;-60
2022/12/12 16:36:07;;;;;;;;;;;;;;;;;;5091651;28;1165;-60
2022/12/12 16:38:32;;;;;;;;;;;;;;;;;;5084845;28;4556;-61
2022/12/12 16:40:58;;;;;;;;;;;;;;;;;;5086151;28;5602;-61
2022/12/12 16:43:23;;;;;;;;;;;;;;;;;;5062926;28;5092;-61
2022/12/12 16:45:50;;;;;;;;;;;;;;;;;;5086250;28;4912;-62
2022/12/12 16:48:19;;;;;;;;;;;;;;;;;;5089129;28;5215;-56
2022/12/12 16:50:44;;;;;;;;;;;;;;;;;;5089926;28;3278;-59
2022/12/12 16:53:10;;;;;;;;;;;;;;;;;;5086183;28;4669;-62
2022/12/12 16:55:36;;;;;;;;;;;;;;;;;;5082247;28;5012;-57
2022/12/12 16:58:01;;;;;;;;;;;;;;;;;;5095597;28;4509;-59
2022/12/12 17:00:26;;;;;;;;;;;;;;;;;;5090620;28;5164;-60
2022/12/12 17:02:51;;;;;;;;;;;;;;;;;;5084375;28;3832;-60
2022/12/12 17:05:18;;;;;;;;;;;;;;;;;;5095250;28;4479;-59
2022/12/12 17:07:43;;;;;;;;;;;;;;;;;;5077827;28;4572;-60
2022/12/12 17:10:09;;;;;;;;;;;;;;;;;;5077399;28;5280;-59
2022/12/12 17:12:36;;;;;;;;;;;;;;;;;;5095312;28;5536;-59
2022/12/12 17:15:01;;;;;;;;;;;;;;;;;;5087083;28;3364;-58
2022/12/12 17:17:27;;;;;;;;;;;;;;;;;;5071433;28;4994;-59
2022/12/12 17:19:52;;;;;;;;;;;;;;;;;;5092361;28;4888;-60
2022/12/12 17:22:17;;;;;;;;;;;;;;;;;;5098169;28;4630;-59
2022/12/12 17:24:42;;;;;;;;;;;;;;;;;;5091883;28;4568;-59
2022/12/12 17:27:08;;;;;;;;;;;;;;;;;;5093826;28;1307;-59
2022/12/12 17:29:33;;;;;;;;;;;;;;;;;;5087267;28;4963;-59
2022/12/12 17:31:58;;;;;;;;;;;;;;;;;;5094101;28;5085;-60